Ocean Celebrity — HOSZ — position and weather

sailwx.info

Track history (hours):
 
Tides and Currents Weather Stations Pressure Air Temp Water Temp Dewpoint Dewpoint Depression Visibility Wind Speed Wind Dir Waves Ship Positions

Ocean Celebrity

Last reported at 2017-Nov-05 15:48 UTC. Time now 2017-Nov-19 03:04 UTC.
Position N 01°15' E 104°00'.
Warning: this ship's position is 13 days out of date.

Length 289 m; draft 16.4 m.

Type: Cargo ship. MMSI: 356712000.

Date/timePositionNaut miles runAvg speedWind from/ knotsBaromVisibWave heightAir tempDewpointWater temp
2017-Nov-05 15:48N 01°15' E 104°00'2 6.7
2017-Nov-05 15:31N 01°15' E 103°59'2 2.8
2017-Nov-05 14:57N 01°16' E 103°57'0 0.0
2017-Nov-05 14:27N 01°16' E 103°57'0 0.0
2017-Nov-05 13:48N 01°16' E 103°57'0 0.1
2017-Nov-05 13:24N 01°16' E 103°57'0 0.4
2017-Nov-05 12:57N 01°16' E 103°58'0 0.4
2017-Nov-05 12:30N 01°16' E 103°58'0 0.1
2017-Nov-05 12:00N 01°16' E 103°58'0 0.1
2017-Nov-05 11:30N 01°16' E 103°58'0 0.0
2017-Nov-05 10:57N 01°16' E 103°58'0 0.1
2017-Nov-05 10:30N 01°16' E 103°58'0 0.2
2017-Nov-05 10:01N 01°16' E 103°58'1 2.3
2017-Nov-05 09:30N 01°15' E 103°57'3 6.7
2017-Nov-05 09:00N 01°13' E 103°55'5 9.6
2017-Nov-05 08:30N 01°11' E 103°51'5 9.2
2017-Nov-05 08:00N 01°09' E 103°47'4 8.8
2017-Nov-05 07:30N 01°06' E 103°43'4 9.0
2017-Nov-05 07:01N 01°04' E 103°39'4 8.3
2017-Nov-05 06:30N 01°05' E 103°36'5 8.9
2017-Nov-05 05:59N 01°07' E 103°31'4 7.5
2017-Nov-05 05:30N 01°09' E 103°28'4 7.9
2017-Nov-05 04:59N 01°12' E 103°25'4 7.9
2017-Nov-05 04:29N 01°14' E 103°22'4 8.0
2017-Nov-05 03:59N 01°17' E 103°19'  
Track history (hours):
 
Tides and Currents Weather Stations Pressure Air Temp Water Temp Dewpoint Dewpoint Depression Visibility Wind Speed Wind Dir Waves Ship Positions

Ocean Celebrity

Last reported at 2017-Nov-05 15:48 UTC. Time now 2017-Nov-19 03:04 UTC.
Position N 01°15' E 104°00'.
Warning: this ship's position is 13 days out of date.

Length 289 m; draft 16.4 m.

Type: Cargo ship. MMSI: 356712000.

Date/timePositionNaut miles runAvg speedWind from/ knotsBaromVisibWave heightAir tempDewpointWater temp
2017-Nov-05 15:48N 01°15' E 104°00'2 6.7
2017-Nov-05 15:31N 01°15' E 103°59'2 2.8
2017-Nov-05 14:57N 01°16' E 103°57'0 0.0
2017-Nov-05 14:27N 01°16' E 103°57'0 0.0
2017-Nov-05 13:48N 01°16' E 103°57'0 0.1
2017-Nov-05 13:24N 01°16' E 103°57'0 0.4
2017-Nov-05 12:57N 01°16' E 103°58'0 0.4
2017-Nov-05 12:30N 01°16' E 103°58'0 0.1
2017-Nov-05 12:00N 01°16' E 103°58'0 0.1
2017-Nov-05 11:30N 01°16' E 103°58'0 0.0
2017-Nov-05 10:57N 01°16' E 103°58'0 0.1
2017-Nov-05 10:30N 01°16' E 103°58'0 0.2
2017-Nov-05 10:01N 01°16' E 103°58'1 2.3
2017-Nov-05 09:30N 01°15' E 103°57'3 6.7
2017-Nov-05 09:00N 01°13' E 103°55'5 9.6
2017-Nov-05 08:30N 01°11' E 103°51'5 9.2
2017-Nov-05 08:00N 01°09' E 103°47'4 8.8
2017-Nov-05 07:30N 01°06' E 103°43'4 9.0
2017-Nov-05 07:01N 01°04' E 103°39'4 8.3
2017-Nov-05 06:30N 01°05' E 103°36'5 8.9
2017-Nov-05 05:59N 01°07' E 103°31'4 7.5
2017-Nov-05 05:30N 01°09' E 103°28'4 7.9
2017-Nov-05 04:59N 01°12' E 103°25'4 7.9
2017-Nov-05 04:29N 01°14' E 103°22'4 8.0
2017-Nov-05 03:59N 01°17' E 103°19'  

Dump ship's entire track history